sensor_id;sensor_type;location;lat;lon;timestamp;P1;durP1;ratioP1;P2;durP2;ratioP2
38615;SDS011;24370;51.986;4.666;2023-06-26T00:00:01;3.88;;;3.15;;
38615;SDS011;24370;51.986;4.666;2023-06-26T00:02:27;3.67;;;2.97;;
38615;SDS011;24370;51.986;4.666;2023-06-26T00:04:53;4.13;;;2.95;;
38615;SDS011;24370;51.986;4.666;2023-06-26T00:07:18;4.22;;;3.00;;
38615;SDS011;24370;51.986;4.666;2023-06-26T00:09:44;4.75;;;3.10;;
38615;SDS011;24370;51.986;4.666;2023-06-26T00:12:10;5.07;;;3.00;;
38615;SDS011;24370;51.986;4.666;2023-06-26T00:14:36;5.55;;;3.03;;
38615;SDS011;24370;51.986;4.666;2023-06-26T00:17:01;5.68;;;2.60;;
38615;SDS011;24370;51.986;4.666;2023-06-26T00:19:27;6.38;;;3.40;;
38615;SDS011;24370;51.986;4.666;2023-06-26T00:21:52;5.53;;;3.38;;
38615;SDS011;24370;51.986;4.666;2023-06-26T00:24:18;5.05;;;3.10;;
38615;SDS011;24370;51.986;4.666;2023-06-26T00:26:45;3.80;;;2.80;;
38615;SDS011;24370;51.986;4.666;2023-06-26T00:29:11;4.78;;;3.20;;
38615;SDS011;24370;51.986;4.666;2023-06-26T00:31:36;4.53;;;2.88;;
38615;SDS011;24370;51.986;4.666;2023-06-26T00:34:03;5.18;;;2.67;;
38615;SDS011;24370;51.986;4.666;2023-06-26T00:36:28;5.70;;;2.63;;
38615;SDS011;24370;51.986;4.666;2023-06-26T00:38:53;5.40;;;2.92;;
38615;SDS011;24370;51.986;4.666;2023-06-26T00:41:19;5.30;;;2.42;;
38615;SDS011;24370;51.986;4.666;2023-06-26T00:43:45;5.63;;;2.70;;
38615;SDS011;24370;51.986;4.666;2023-06-26T00:46:12;4.82;;;2.70;;
38615;SDS011;24370;51.986;4.666;2023-06-26T00:48:39;4.13;;;2.20;;
38615;SDS011;24370;51.986;4.666;2023-06-26T00:51:10;5.22;;;2.03;;
38615;SDS011;24370;51.986;4.666;2023-06-26T00:53:36;3.47;;;2.28;;
38615;SDS011;24370;51.986;4.666;2023-06-26T00:56:02;5.38;;;2.47;;
38615;SDS011;24370;51.986;4.666;2023-06-26T00:58:28;4.60;;;2.75;;
38615;SDS011;24370;51.986;4.666;2023-06-26T01:00:53;5.80;;;1.92;;
38615;SDS011;24370;51.986;4.666;2023-06-26T01:03:20;6.40;;;2.90;;
38615;SDS011;24370;51.986;4.666;2023-06-26T01:05:47;8.75;;;2.55;;
38615;SDS011;24370;51.986;4.666;2023-06-26T01:08:14;7.22;;;2.47;;
38615;SDS011;24370;51.986;4.666;2023-06-26T01:10:40;5.93;;;2.47;;
38615;SDS011;24370;51.986;4.666;2023-06-26T01:13:06;5.30;;;2.70;;
38615;SDS011;24370;51.986;4.666;2023-06-26T01:15:32;6.25;;;2.42;;
38615;SDS011;24370;51.986;4.666;2023-06-26T01:17:58;8.20;;;2.53;;
38615;SDS011;24370;51.986;4.666;2023-06-26T01:20:25;5.53;;;2.60;;
38615;SDS011;24370;51.986;4.666;2023-06-26T01:28:17;10.68;;;2.80;;
38615;SDS011;24370;51.986;4.666;2023-06-26T01:30:44;5.80;;;2.55;;
38615;SDS011;24370;51.986;4.666;2023-06-26T01:33:11;6.40;;;3.10;;
38615;SDS011;24370;51.986;4.666;2023-06-26T01:35:38;9.55;;;2.97;;
38615;SDS011;24370;51.986;4.666;2023-06-26T01:38:15;11.07;;;3.10;;
38615;SDS011;24370;51.986;4.666;2023-06-26T01:40:42;9.20;;;2.75;;
38615;SDS011;24370;51.986;4.666;2023-06-26T01:43:10;9.05;;;2.92;;
38615;SDS011;24370;51.986;4.666;2023-06-26T01:45:42;7.05;;;2.78;;
38615;SDS011;24370;51.986;4.666;2023-06-26T01:48:13;9.65;;;3.13;;
38615;SDS011;24370;51.986;4.666;2023-06-26T01:50:41;7.97;;;3.10;;
38615;SDS011;24370;51.986;4.666;2023-06-26T01:53:13;9.23;;;2.90;;
38615;SDS011;24370;51.986;4.666;2023-06-26T01:55:50;9.05;;;2.83;;
38615;SDS011;24370;51.986;4.666;2023-06-26T01:58:21;6.05;;;2.63;;
38615;SDS011;24370;51.986;4.666;2023-06-26T02:00:49;11.85;;;2.95;;
38615;SDS011;24370;51.986;4.666;2023-06-26T02:03:14;5.65;;;2.60;;
38615;SDS011;24370;51.986;4.666;2023-06-26T02:05:39;7.93;;;3.22;;
38615;SDS011;24370;51.986;4.666;2023-06-26T02:08:05;7.32;;;3.15;;
38615;SDS011;24370;51.986;4.666;2023-06-26T02:10:33;7.32;;;2.70;;
38615;SDS011;24370;51.986;4.666;2023-06-26T02:12:59;9.45;;;3.35;;
38615;SDS011;24370;51.986;4.666;2023-06-26T02:15:25;16.00;;;3.38;;
38615;SDS011;24370;51.986;4.666;2023-06-26T02:17:50;12.07;;;3.05;;
38615;SDS011;24370;51.986;4.666;2023-06-26T02:20:15;5.38;;;2.70;;
38615;SDS011;24370;51.986;4.666;2023-06-26T02:22:41;9.40;;;3.25;;
38615;SDS011;24370;51.986;4.666;2023-06-26T02:25:07;9.50;;;3.30;;
38615;SDS011;24370;51.986;4.666;2023-06-26T02:27:33;11.88;;;3.60;;
38615;SDS011;24370;51.986;4.666;2023-06-26T02:29:58;6.82;;;2.90;;
38615;SDS011;24370;51.986;4.666;2023-06-26T02:32:23;8.80;;;2.70;;
38615;SDS011;24370;51.986;4.666;2023-06-26T02:34:49;11.15;;;2.70;;
38615;SDS011;24370;51.986;4.666;2023-06-26T02:37:16;10.00;;;3.38;;
38615;SDS011;24370;51.986;4.666;2023-06-26T02:39:42;9.38;;;3.10;;
38615;SDS011;24370;51.986;4.666;2023-06-26T02:42:08;9.80;;;2.72;;
38615;SDS011;24370;51.986;4.666;2023-06-26T02:44:33;10.30;;;2.95;;
38615;SDS011;24370;51.986;4.666;2023-06-26T02:46:58;9.13;;;3.15;;
38615;SDS011;24370;51.986;4.666;2023-06-26T02:49:24;10.20;;;3.38;;
38615;SDS011;24370;51.986;4.666;2023-06-26T02:51:49;9.23;;;2.90;;
38615;SDS011;24370;51.986;4.666;2023-06-26T02:54:14;10.80;;;3.58;;
38615;SDS011;24370;51.986;4.666;2023-06-26T02:56:40;8.60;;;2.63;;
38615;SDS011;24370;51.986;4.666;2023-06-26T02:59:05;9.48;;;2.90;;
38615;SDS011;24370;51.986;4.666;2023-06-26T03:01:31;8.63;;;2.80;;
38615;SDS011;24370;51.986;4.666;2023-06-26T03:03:56;8.10;;;2.85;;
38615;SDS011;24370;51.986;4.666;2023-06-26T03:06:21;7.60;;;2.92;;
38615;SDS011;24370;51.986;4.666;2023-06-26T03:08:47;7.32;;;2.72;;
38615;SDS011;24370;51.986;4.666;2023-06-26T03:11:12;5.45;;;2.53;;
38615;SDS011;24370;51.986;4.666;2023-06-26T03:13:38;10.55;;;3.00;;
38615;SDS011;24370;51.986;4.666;2023-06-26T03:16:03;5.13;;;2.60;;
38615;SDS011;24370;51.986;4.666;2023-06-26T03:18:29;14.93;;;3.10;;
38615;SDS011;24370;51.986;4.666;2023-06-26T03:20:55;5.82;;;2.70;;
38615;SDS011;24370;51.986;4.666;2023-06-26T03:23:21;5.13;;;2.58;;
38615;SDS011;24370;51.986;4.666;2023-06-26T03:25:48;9.60;;;3.15;;
38615;SDS011;24370;51.986;4.666;2023-06-26T03:28:14;12.77;;;3.38;;
38615;SDS011;24370;51.986;4.666;2023-06-26T03:30:40;9.15;;;2.65;;
38615;SDS011;24370;51.986;4.666;2023-06-26T03:33:05;8.95;;;2.92;;
38615;SDS011;24370;51.986;4.666;2023-06-26T03:35:31;9.32;;;2.85;;
38615;SDS011;24370;51.986;4.666;2023-06-26T03:37:57;9.27;;;2.92;;
38615;SDS011;24370;51.986;4.666;2023-06-26T03:40:22;11.60;;;3.83;;
38615;SDS011;24370;51.986;4.666;2023-06-26T03:42:48;8.15;;;2.72;;
38615;SDS011;24370;51.986;4.666;2023-06-26T03:45:13;10.73;;;3.25;;
38615;SDS011;24370;51.986;4.666;2023-06-26T03:47:39;9.30;;;2.85;;
38615;SDS011;24370;51.986;4.666;2023-06-26T03:50:04;9.30;;;2.92;;
38615;SDS011;24370;51.986;4.666;2023-06-26T03:52:30;11.35;;;3.53;;
38615;SDS011;24370;51.986;4.666;2023-06-26T03:54:56;5.93;;;2.83;;
38615;SDS011;24370;51.986;4.666;2023-06-26T03:57:22;7.13;;;2.40;;
38615;SDS011;24370;51.986;4.666;2023-06-26T03:59:48;9.38;;;2.88;;
38615;SDS011;24370;51.986;4.666;2023-06-26T04:02:13;10.10;;;3.10;;
38615;SDS011;24370;51.986;4.666;2023-06-26T04:04:38;15.30;;;3.13;;
38615;SDS011;24370;51.986;4.666;2023-06-26T04:07:04;7.78;;;2.67;;
38615;SDS011;24370;51.986;4.666;2023-06-26T04:09:30;8.45;;;2.92;;
38615;SDS011;24370;51.986;4.666;2023-06-26T04:11:55;11.30;;;3.08;;
38615;SDS011;24370;51.986;4.666;2023-06-26T04:14:20;9.63;;;3.28;;
38615;SDS011;24370;51.986;4.666;2023-06-26T04:16:46;7.93;;;3.20;;
38615;SDS011;24370;51.986;4.666;2023-06-26T04:19:11;12.38;;;3.08;;
38615;SDS011;24370;51.986;4.666;2023-06-26T04:21:37;6.68;;;2.67;;
38615;SDS011;24370;51.986;4.666;2023-06-26T04:24:03;9.98;;;3.17;;
38615;SDS011;24370;51.986;4.666;2023-06-26T04:26:28;6.53;;;2.55;;
38615;SDS011;24370;51.986;4.666;2023-06-26T04:28:54;8.18;;;2.55;;
38615;SDS011;24370;51.986;4.666;2023-06-26T04:31:19;9.80;;;2.97;;
38615;SDS011;24370;51.986;4.666;2023-06-26T04:33:45;7.47;;;2.38;;
38615;SDS011;24370;51.986;4.666;2023-06-26T04:36:15;7.28;;;2.63;;
38615;SDS011;24370;51.986;4.666;2023-06-26T04:38:41;9.93;;;2.78;;
38615;SDS011;24370;51.986;4.666;2023-06-26T04:41:07;10.18;;;3.00;;
38615;SDS011;24370;51.986;4.666;2023-06-26T04:43:32;13.00;;;2.63;;
38615;SDS011;24370;51.986;4.666;2023-06-26T04:45:58;9.05;;;2.67;;
38615;SDS011;24370;51.986;4.666;2023-06-26T04:48:23;11.15;;;3.00;;
38615;SDS011;24370;51.986;4.666;2023-06-26T04:50:48;7.28;;;2.78;;
38615;SDS011;24370;51.986;4.666;2023-06-26T04:53:18;4.63;;;2.08;;
38615;SDS011;24370;51.986;4.666;2023-06-26T04:55:45;6.22;;;2.40;;
38615;SDS011;24370;51.986;4.666;2023-06-26T04:58:10;17.65;;;2.78;;
38615;SDS011;24370;51.986;4.666;2023-06-26T05:00:35;5.13;;;2.50;;
38615;SDS011;24370;51.986;4.666;2023-06-26T05:03:01;8.38;;;2.53;;
38615;SDS011;24370;51.986;4.666;2023-06-26T05:05:27;7.53;;;2.22;;
38615;SDS011;24370;51.986;4.666;2023-06-26T05:07:54;5.55;;;2.35;;
38615;SDS011;24370;51.986;4.666;2023-06-26T05:10:20;4.82;;;1.88;;
38615;SDS011;24370;51.986;4.666;2023-06-26T05:12:45;6.10;;;1.98;;
38615;SDS011;24370;51.986;4.666;2023-06-26T05:15:11;3.85;;;1.98;;
38615;SDS011;24370;51.986;4.666;2023-06-26T05:17:36;4.22;;;1.90;;
38615;SDS011;24370;51.986;4.666;2023-06-26T05:20:02;3.78;;;2.10;;
38615;SDS011;24370;51.986;4.666;2023-06-26T05:22:28;4.47;;;2.22;;
38615;SDS011;24370;51.986;4.666;2023-06-26T05:24:54;4.22;;;2.10;;
38615;SDS011;24370;51.986;4.666;2023-06-26T05:27:24;4.70;;;2.00;;
38615;SDS011;24370;51.986;4.666;2023-06-26T05:29:50;4.55;;;2.00;;
38615;SDS011;24370;51.986;4.666;2023-06-26T05:32:16;7.72;;;1.83;;
38615;SDS011;24370;51.986;4.666;2023-06-26T05:34:48;6.18;;;1.92;;
38615;SDS011;24370;51.986;4.666;2023-06-26T05:37:18;2.80;;;1.75;;
38615;SDS011;24370;51.986;4.666;2023-06-26T05:39:46;3.88;;;1.73;;
38615;SDS011;24370;51.986;4.666;2023-06-26T05:42:12;3.40;;;1.73;;
38615;SDS011;24370;51.986;4.666;2023-06-26T05:44:37;4.13;;;2.20;;
38615;SDS011;24370;51.986;4.666;2023-06-26T05:47:03;4.88;;;1.92;;
38615;SDS011;24370;51.986;4.666;2023-06-26T05:49:28;10.85;;;2.00;;
38615;SDS011;24370;51.986;4.666;2023-06-26T05:51:54;2.63;;;1.85;;
38615;SDS011;24370;51.986;4.666;2023-06-26T05:54:19;11.32;;;2.00;;
38615;SDS011;24370;51.986;4.666;2023-06-26T05:56:46;3.65;;;1.58;;
38615;SDS011;24370;51.986;4.666;2023-06-26T05:59:13;4.90;;;1.60;;
38615;SDS011;24370;51.986;4.666;2023-06-26T06:01:40;3.05;;;1.60;;
38615;SDS011;24370;51.986;4.666;2023-06-26T06:04:06;1.48;;;1.15;;
38615;SDS011;24370;51.986;4.666;2023-06-26T06:06:31;7.15;;;1.55;;
38615;SDS011;24370;51.986;4.666;2023-06-26T06:08:57;5.82;;;1.58;;
38615;SDS011;24370;51.986;4.666;2023-06-26T06:11:22;2.13;;;0.90;;
38615;SDS011;24370;51.986;4.666;2023-06-26T06:13:48;1.50;;;1.40;;
38615;SDS011;24370;51.986;4.666;2023-06-26T06:16:13;3.75;;;1.35;;
38615;SDS011;24370;51.986;4.666;2023-06-26T06:18:38;4.13;;;1.20;;
38615;SDS011;24370;51.986;4.666;2023-06-26T06:21:04;2.75;;;1.20;;
38615;SDS011;24370;51.986;4.666;2023-06-26T06:23:29;2.63;;;0.70;;
38615;SDS011;24370;51.986;4.666;2023-06-26T06:25:55;5.13;;;0.98;;
38615;SDS011;24370;51.986;4.666;2023-06-26T06:28:20;3.78;;;1.02;;
38615;SDS011;24370;51.986;4.666;2023-06-26T06:30:46;1.95;;;0.75;;
38615;SDS011;24370;51.986;4.666;2023-06-26T06:33:12;4.43;;;0.85;;
38615;SDS011;24370;51.986;4.666;2023-06-26T06:35:38;1.35;;;0.95;;
38615;SDS011;24370;51.986;4.666;2023-06-26T06:38:04;5.78;;;1.17;;
38615;SDS011;24370;51.986;4.666;2023-06-26T06:40:30;4.72;;;1.02;;
38615;SDS011;24370;51.986;4.666;2023-06-26T06:42:55;4.13;;;0.85;;
38615;SDS011;24370;51.986;4.666;2023-06-26T06:45:20;2.60;;;0.95;;
38615;SDS011;24370;51.986;4.666;2023-06-26T06:47:46;1.67;;;1.05;;
38615;SDS011;24370;51.986;4.666;2023-06-26T06:50:11;1.75;;;0.93;;
38615;SDS011;24370;51.986;4.666;2023-06-26T06:52:37;6.30;;;1.08;;
38615;SDS011;24370;51.986;4.666;2023-06-26T06:55:05;2.63;;;0.80;;
38615;SDS011;24370;51.986;4.666;2023-06-26T06:57:33;3.78;;;0.85;;
38615;SDS011;24370;51.986;4.666;2023-06-26T07:00:06;0.90;;;0.70;;
38615;SDS011;24370;51.986;4.666;2023-06-26T07:02:37;3.83;;;0.75;;
38615;SDS011;24370;51.986;4.666;2023-06-26T07:05:03;2.35;;;0.80;;
38615;SDS011;24370;51.986;4.666;2023-06-26T07:07:30;2.03;;;1.08;;
38615;SDS011;24370;51.986;4.666;2023-06-26T07:10:06;4.78;;;0.77;;
38615;SDS011;24370;51.986;4.666;2023-06-26T07:12:33;4.53;;;1.30;;
38615;SDS011;24370;51.986;4.666;2023-06-26T07:15:03;2.10;;;0.68;;
38615;SDS011;24370;51.986;4.666;2023-06-26T07:17:30;2.90;;;0.82;;
38615;SDS011;24370;51.986;4.666;2023-06-26T07:19:56;2.45;;;1.10;;
38615;SDS011;24370;51.986;4.666;2023-06-26T07:22:21;2.45;;;0.80;;
38615;SDS011;24370;51.986;4.666;2023-06-26T07:24:47;4.25;;;0.95;;
38615;SDS011;24370;51.986;4.666;2023-06-26T07:27:14;3.55;;;1.15;;
38615;SDS011;24370;51.986;4.666;2023-06-26T07:29:40;2.38;;;0.80;;
38615;SDS011;24370;51.986;4.666;2023-06-26T07:32:05;6.18;;;0.90;;
38615;SDS011;24370;51.986;4.666;2023-06-26T07:34:31;4.95;;;1.10;;
38615;SDS011;24370;51.986;4.666;2023-06-26T07:36:56;3.38;;;1.00;;
38615;SDS011;24370;51.986;4.666;2023-06-26T07:39:22;1.92;;;0.93;;
38615;SDS011;24370;51.986;4.666;2023-06-26T07:41:47;1.73;;;0.93;;
38615;SDS011;24370;51.986;4.666;2023-06-26T07:44:12;2.65;;;1.17;;
38615;SDS011;24370;51.986;4.666;2023-06-26T07:46:39;3.90;;;1.00;;
38615;SDS011;24370;51.986;4.666;2023-06-26T07:49:04;1.33;;;0.70;;
38615;SDS011;24370;51.986;4.666;2023-06-26T07:51:30;3.00;;;0.80;;
38615;SDS011;24370;51.986;4.666;2023-06-26T07:53:55;5.03;;;0.90;;
38615;SDS011;24370;51.986;4.666;2023-06-26T07:56:21;3.22;;;0.90;;
38615;SDS011;24370;51.986;4.666;2023-06-26T07:58:46;1.88;;;0.93;;
38615;SDS011;24370;51.986;4.666;2023-06-26T08:01:12;4.05;;;0.90;;
38615;SDS011;24370;51.986;4.666;2023-06-26T08:03:37;3.80;;;0.75;;
38615;SDS011;24370;51.986;4.666;2023-06-26T08:06:03;2.55;;;0.80;;
38615;SDS011;24370;51.986;4.666;2023-06-26T08:08:28;2.35;;;0.70;;
38615;SDS011;24370;51.986;4.666;2023-06-26T08:10:54;4.03;;;1.23;;
38615;SDS011;24370;51.986;4.666;2023-06-26T08:13:19;2.45;;;0.88;;
38615;SDS011;24370;51.986;4.666;2023-06-26T08:15:45;3.42;;;1.05;;
38615;SDS011;24370;51.986;4.666;2023-06-26T08:18:10;2.63;;;1.08;;
38615;SDS011;24370;51.986;4.666;2023-06-26T08:20:36;2.13;;;0.80;;
38615;SDS011;24370;51.986;4.666;2023-06-26T08:23:03;4.28;;;0.82;;
38615;SDS011;24370;51.986;4.666;2023-06-26T08:25:29;2.40;;;1.00;;
38615;SDS011;24370;51.986;4.666;2023-06-26T08:27:54;3.38;;;1.00;;
38615;SDS011;24370;51.986;4.666;2023-06-26T08:30:20;2.53;;;0.80;;
38615;SDS011;24370;51.986;4.666;2023-06-26T08:32:46;1.95;;;0.85;;
38615;SDS011;24370;51.986;4.666;2023-06-26T08:35:11;2.83;;;0.98;;
38615;SDS011;24370;51.986;4.666;2023-06-26T08:37:37;2.20;;;0.98;;
38615;SDS011;24370;51.986;4.666;2023-06-26T08:40:03;4.25;;;1.27;;
38615;SDS011;24370;51.986;4.666;2023-06-26T08:42:29;1.00;;;0.73;;
38615;SDS011;24370;51.986;4.666;2023-06-26T08:44:55;1.95;;;0.60;;
38615;SDS011;24370;51.986;4.666;2023-06-26T08:47:20;2.85;;;1.05;;
38615;SDS011;24370;51.986;4.666;2023-06-26T08:49:47;2.42;;;0.93;;
38615;SDS011;24370;51.986;4.666;2023-06-26T08:52:22;0.70;;;0.52;;
38615;SDS011;24370;51.986;4.666;2023-06-26T08:54:50;2.75;;;0.90;;
38615;SDS011;24370;51.986;4.666;2023-06-26T08:57:21;1.35;;;0.82;;
38615;SDS011;24370;51.986;4.666;2023-06-26T08:59:48;3.42;;;1.02;;
38615;SDS011;24370;51.986;4.666;2023-06-26T09:02:14;3.67;;;1.10;;
38615;SDS011;24370;51.986;4.666;2023-06-26T09:04:39;1.55;;;0.95;;
38615;SDS011;24370;51.986;4.666;2023-06-26T09:07:05;1.95;;;0.73;;
38615;SDS011;24370;51.986;4.666;2023-06-26T09:09:31;1.20;;;0.85;;
38615;SDS011;24370;51.986;4.666;2023-06-26T09:11:57;2.75;;;0.98;;
38615;SDS011;24370;51.986;4.666;2023-06-26T09:14:23;3.38;;;1.30;;
38615;SDS011;24370;51.986;4.666;2023-06-26T09:16:49;5.05;;;1.25;;
38615;SDS011;24370;51.986;4.666;2023-06-26T09:19:15;2.92;;;0.80;;
38615;SDS011;24370;51.986;4.666;2023-06-26T09:21:43;1.50;;;0.80;;
38615;SDS011;24370;51.986;4.666;2023-06-26T09:24:09;1.20;;;0.80;;
38615;SDS011;24370;51.986;4.666;2023-06-26T09:26:36;2.47;;;1.20;;
38615;SDS011;24370;51.986;4.666;2023-06-26T09:29:03;2.42;;;0.95;;
38615;SDS011;24370;51.986;4.666;2023-06-26T09:31:30;3.17;;;0.90;;
38615;SDS011;24370;51.986;4.666;2023-06-26T09:33:57;2.10;;;0.90;;
38615;SDS011;24370;51.986;4.666;2023-06-26T09:36:29;0.98;;;0.60;;
38615;SDS011;24370;51.986;4.666;2023-06-26T09:39:07;2.08;;;0.85;;
38615;SDS011;24370;51.986;4.666;2023-06-26T09:41:39;1.92;;;0.80;;
38615;SDS011;24370;51.986;4.666;2023-06-26T09:44:06;2.90;;;0.80;;
38615;SDS011;24370;51.986;4.666;2023-06-26T09:46:32;7.85;;;1.08;;
38615;SDS011;24370;51.986;4.666;2023-06-26T09:49:08;4.03;;;0.90;;
38615;SDS011;24370;51.986;4.666;2023-06-26T09:51:38;2.13;;;1.02;;
38615;SDS011;24370;51.986;4.666;2023-06-26T09:54:05;5.30;;;1.20;;
38615;SDS011;24370;51.986;4.666;2023-06-26T09:56:31;1.92;;;0.80;;
38615;SDS011;24370;51.986;4.666;2023-06-26T09:58:58;3.63;;;1.10;;
38615;SDS011;24370;51.986;4.666;2023-06-26T10:01:26;5.38;;;1.00;;
38615;SDS011;24370;51.986;4.666;2023-06-26T10:03:52;3.35;;;1.00;;
38615;SDS011;24370;51.986;4.666;2023-06-26T10:06:21;5.05;;;1.08;;
38615;SDS011;24370;51.986;4.666;2023-06-26T10:08:50;1.77;;;0.77;;
38615;SDS011;24370;51.986;4.666;2023-06-26T10:11:18;3.28;;;1.45;;
38615;SDS011;24370;51.986;4.666;2023-06-26T10:13:47;2.70;;;1.00;;
38615;SDS011;24370;51.986;4.666;2023-06-26T10:16:17;1.15;;;0.90;;
38615;SDS011;24370;51.986;4.666;2023-06-26T10:18:56;1.95;;;1.10;;
38615;SDS011;24370;51.986;4.666;2023-06-26T10:21:27;2.13;;;0.93;;
38615;SDS011;24370;51.986;4.666;2023-06-26T10:23:54;4.55;;;0.90;;
38615;SDS011;24370;51.986;4.666;2023-06-26T10:26:21;1.23;;;0.70;;
38615;SDS011;24370;51.986;4.666;2023-06-26T10:28:49;2.97;;;0.93;;
38615;SDS011;24370;51.986;4.666;2023-06-26T10:31:18;2.65;;;0.90;;
38615;SDS011;24370;51.986;4.666;2023-06-26T10:33:47;2.25;;;0.90;;
38615;SDS011;24370;51.986;4.666;2023-06-26T10:36:14;1.90;;;0.80;;
38615;SDS011;24370;51.986;4.666;2023-06-26T10:43:45;2.03;;;1.00;;
38615;SDS011;24370;51.986;4.666;2023-06-26T10:46:14;1.85;;;0.95;;
38615;SDS011;24370;51.986;4.666;2023-06-26T10:49:13;1.58;;;0.80;;
38615;SDS011;24370;51.986;4.666;2023-06-26T10:51:37;1.70;;;0.55;;
38615;SDS011;24370;51.986;4.666;2023-06-26T10:54:02;3.00;;;0.70;;
38615;SDS011;24370;51.986;4.666;2023-06-26T10:59:27;2.88;;;0.40;;
38615;SDS011;24370;51.986;4.666;2023-06-26T11:01:54;1.90;;;0.93;;
38615;SDS011;24370;51.986;4.666;2023-06-26T11:07:14;2.92;;;0.50;;
38615;SDS011;24370;51.986;4.666;2023-06-26T11:09:52;3.25;;;0.80;;
38615;SDS011;24370;51.986;4.666;2023-06-26T11:12:39;1.60;;;0.57;;
38615;SDS011;24370;51.986;4.666;2023-06-26T11:15:25;1.55;;;0.55;;
38615;SDS011;24370;51.986;4.666;2023-06-26T11:17:52;0.73;;;0.65;;
38615;SDS011;24370;51.986;4.666;2023-06-26T11:20:18;3.13;;;0.60;;
38615;SDS011;24370;51.986;4.666;2023-06-26T11:22:44;3.53;;;0.80;;
38615;SDS011;24370;51.986;4.666;2023-06-26T11:25:09;1.00;;;0.75;;
38615;SDS011;24370;51.986;4.666;2023-06-26T11:27:42;3.33;;;0.90;;
38615;SDS011;24370;51.986;4.666;2023-06-26T11:30:09;1.02;;;0.73;;
38615;SDS011;24370;51.986;4.666;2023-06-26T11:32:36;3.53;;;0.77;;
38615;SDS011;24370;51.986;4.666;2023-06-26T11:35:03;2.13;;;0.70;;
38615;SDS011;24370;51.986;4.666;2023-06-26T11:37:32;2.30;;;0.80;;
38615;SDS011;24370;51.986;4.666;2023-06-26T11:39:58;1.90;;;0.63;;
38615;SDS011;24370;51.986;4.666;2023-06-26T11:42:24;1.85;;;0.50;;
38615;SDS011;24370;51.986;4.666;2023-06-26T11:44:50;1.35;;;0.63;;
38615;SDS011;24370;51.986;4.666;2023-06-26T11:47:17;3.17;;;0.80;;
38615;SDS011;24370;51.986;4.666;2023-06-26T11:49:43;4.18;;;0.88;;
38615;SDS011;24370;51.986;4.666;2023-06-26T11:52:10;2.75;;;0.80;;
38615;SDS011;24370;51.986;4.666;2023-06-26T11:54:35;2.30;;;0.80;;
38615;SDS011;24370;51.986;4.666;2023-06-26T11:57:01;1.23;;;0.88;;
38615;SDS011;24370;51.986;4.666;2023-06-26T11:59:33;1.45;;;0.60;;
38615;SDS011;24370;51.986;4.666;2023-06-26T12:02:05;2.38;;;0.60;;
38615;SDS011;24370;51.986;4.666;2023-06-26T12:04:31;0.50;;;0.40;;
38615;SDS011;24370;51.986;4.666;2023-06-26T12:06:58;1.17;;;0.50;;
38615;SDS011;24370;51.986;4.666;2023-06-26T12:09:25;2.47;;;0.80;;
38615;SDS011;24370;51.986;4.666;2023-06-26T12:11:52;0.35;;;0.35;;
38615;SDS011;24370;51.986;4.666;2023-06-26T12:14:20;1.95;;;0.57;;
38615;SDS011;24370;51.986;4.666;2023-06-26T12:16:46;1.13;;;0.52;;
38615;SDS011;24370;51.986;4.666;2023-06-26T12:19:12;0.65;;;0.57;;
38615;SDS011;24370;51.986;4.666;2023-06-26T12:24:03;1.80;;;0.77;;
38615;SDS011;24370;51.986;4.666;2023-06-26T12:26:29;0.75;;;0.50;;
38615;SDS011;24370;51.986;4.666;2023-06-26T12:29:05;2.55;;;0.85;;
38615;SDS011;24370;51.986;4.666;2023-06-26T12:31:30;0.75;;;0.40;;
38615;SDS011;24370;51.986;4.666;2023-06-26T12:33:57;2.75;;;0.70;;
38615;SDS011;24370;51.986;4.666;2023-06-26T12:36:22;1.92;;;0.93;;
38615;SDS011;24370;51.986;4.666;2023-06-26T12:38:48;1.83;;;0.63;;
38615;SDS011;24370;51.986;4.666;2023-06-26T12:41:14;1.77;;;0.50;;
38615;SDS011;24370;51.986;4.666;2023-06-26T12:43:40;2.67;;;0.90;;
38615;SDS011;24370;51.986;4.666;2023-06-26T12:46:07;1.23;;;0.57;;
38615;SDS011;24370;51.986;4.666;2023-06-26T12:48:42;1.42;;;0.70;;
38615;SDS011;24370;51.986;4.666;2023-06-26T12:51:12;1.98;;;0.80;;
38615;SDS011;24370;51.986;4.666;2023-06-26T12:53:39;0.60;;;0.60;;
38615;SDS011;24370;51.986;4.666;2023-06-26T12:56:06;3.40;;;0.60;;
38615;SDS011;24370;51.986;4.666;2023-06-26T12:58:35;3.45;;;1.17;;
38615;SDS011;24370;51.986;4.666;2023-06-26T13:01:05;1.20;;;0.57;;
38615;SDS011;24370;51.986;4.666;2023-06-26T13:03:38;4.60;;;1.00;;
38615;SDS011;24370;51.986;4.666;2023-06-26T13:06:05;0.65;;;0.50;;
38615;SDS011;24370;51.986;4.666;2023-06-26T13:08:30;2.53;;;0.55;;
38615;SDS011;24370;51.986;4.666;2023-06-26T13:10:56;1.42;;;0.80;;
38615;SDS011;24370;51.986;4.666;2023-06-26T13:13:21;3.78;;;0.73;;
38615;SDS011;24370;51.986;4.666;2023-06-26T13:15:47;1.48;;;0.73;;
38615;SDS011;24370;51.986;4.666;2023-06-26T13:18:12;2.15;;;0.90;;
38615;SDS011;24370;51.986;4.666;2023-06-26T13:20:38;2.80;;;0.77;;
38615;SDS011;24370;51.986;4.666;2023-06-26T13:23:03;3.17;;;0.70;;
38615;SDS011;24370;51.986;4.666;2023-06-26T13:25:29;4.20;;;0.77;;
38615;SDS011;24370;51.986;4.666;2023-06-26T13:27:54;3.65;;;0.70;;
38615;SDS011;24370;51.986;4.666;2023-06-26T13:30:20;0.77;;;0.52;;
38615;SDS011;24370;51.986;4.666;2023-06-26T13:32:46;2.53;;;0.80;;
38615;SDS011;24370;51.986;4.666;2023-06-26T13:35:12;0.50;;;0.50;;
38615;SDS011;24370;51.986;4.666;2023-06-26T13:37:38;1.90;;;0.85;;
38615;SDS011;24370;51.986;4.666;2023-06-26T13:40:05;1.33;;;0.52;;
38615;SDS011;24370;51.986;4.666;2023-06-26T13:42:32;1.35;;;0.80;;
38615;SDS011;24370;51.986;4.666;2023-06-26T13:44:57;1.75;;;0.70;;
38615;SDS011;24370;51.986;4.666;2023-06-26T13:47:23;2.53;;;0.70;;
38615;SDS011;24370;51.986;4.666;2023-06-26T13:49:48;3.13;;;0.70;;
38615;SDS011;24370;51.986;4.666;2023-06-26T13:52:14;3.08;;;0.90;;
38615;SDS011;24370;51.986;4.666;2023-06-26T13:54:39;1.92;;;0.60;;
38615;SDS011;24370;51.986;4.666;2023-06-26T13:57:05;3.20;;;0.82;;
38615;SDS011;24370;51.986;4.666;2023-06-26T13:59:31;1.75;;;0.60;;
38615;SDS011;24370;51.986;4.666;2023-06-26T14:01:57;0.50;;;0.45;;
38615;SDS011;24370;51.986;4.666;2023-06-26T14:04:23;1.15;;;0.50;;
38615;SDS011;24370;51.986;4.666;2023-06-26T14:06:49;1.98;;;0.63;;
38615;SDS011;24370;51.986;4.666;2023-06-26T14:09:14;1.50;;;1.00;;
38615;SDS011;24370;51.986;4.666;2023-06-26T14:11:40;1.67;;;0.55;;
38615;SDS011;24370;51.986;4.666;2023-06-26T14:14:06;1.48;;;0.95;;
38615;SDS011;24370;51.986;4.666;2023-06-26T14:16:32;2.22;;;0.95;;
38615;SDS011;24370;51.986;4.666;2023-06-26T14:18:58;0.68;;;0.60;;
38615;SDS011;24370;51.986;4.666;2023-06-26T14:21:23;1.95;;;0.75;;
38615;SDS011;24370;51.986;4.666;2023-06-26T14:23:49;2.42;;;0.70;;
38615;SDS011;24370;51.986;4.666;2023-06-26T14:26:14;1.38;;;0.70;;
38615;SDS011;24370;51.986;4.666;2023-06-26T14:28:40;4.10;;;1.10;;
38615;SDS011;24370;51.986;4.666;2023-06-26T14:31:06;1.20;;;0.57;;
38615;SDS011;24370;51.986;4.666;2023-06-26T14:33:31;3.40;;;0.68;;
38615;SDS011;24370;51.986;4.666;2023-06-26T14:35:57;1.67;;;0.82;;
38615;SDS011;24370;51.986;4.666;2023-06-26T14:38:22;1.02;;;0.57;;
38615;SDS011;24370;51.986;4.666;2023-06-26T14:40:48;1.27;;;0.45;;
38615;SDS011;24370;51.986;4.666;2023-06-26T14:43:13;1.13;;;0.52;;
38615;SDS011;24370;51.986;4.666;2023-06-26T14:45:39;1.65;;;0.50;;
38615;SDS011;24370;51.986;4.666;2023-06-26T14:48:04;1.48;;;0.60;;
38615;SDS011;24370;51.986;4.666;2023-06-26T14:50:30;2.17;;;0.63;;
38615;SDS011;24370;51.986;4.666;2023-06-26T14:52:55;1.92;;;0.80;;
38615;SDS011;24370;51.986;4.666;2023-06-26T14:55:20;0.98;;;0.60;;
38615;SDS011;24370;51.986;4.666;2023-06-26T14:57:46;0.68;;;0.57;;
38615;SDS011;24370;51.986;4.666;2023-06-26T15:00:12;1.42;;;0.70;;